Time;durP1;ratioP1;P1;durP2;ratioP2;P2;SDS_P1;SDS_P2;PMS_P1;PMS_P2;Temp;Humidity;BMP_temperature;BMP_pressure;BME280_temperature;BME280_humidity;BME280_pressure;Samples;Min_cycle;Max_cycle;Signal;HPM_P1;HPM_P2
2021/09/18 00:01:31;;;;;;;10.68;3.65;;;;;;;24.46;52.71;94607.06;4990234;28;20041;-74
2021/09/18 00:03:57;;;;;;;16.23;4.00;;;;;;;24.47;52.76;94603.09;4986873;28;20022;-74
2021/09/18 00:06:22;;;;;;;9.48;3.60;;;;;;;24.48;52.57;94610.00;4987155;28;20030;-74
2021/09/18 00:08:47;;;;;;;8.63;3.15;;;;;;;24.47;52.12;94597.63;4987053;28;20092;-74
2021/09/18 00:11:13;;;;;;;10.63;3.45;;;;;;;24.48;52.37;94610.00;4988439;28;20108;-74
2021/09/18 00:13:38;;;;;;;14.63;3.70;;;;;;;24.47;52.30;94608.56;4992033;28;20045;-73
2021/09/18 00:16:04;;;;;;;8.27;3.88;;;;;;;24.47;52.61;94614.00;5007860;28;20444;-73
2021/09/18 00:18:29;;;;;;;14.00;3.95;;;;;;;24.46;52.82;94609.78;5006915;28;20515;-72
2021/09/18 00:20:55;;;;;;;10.50;3.67;;;;;;;24.47;52.40;94614.00;5007643;28;20026;-73
2021/09/18 00:23:21;;;;;;;8.48;4.05;;;;;;;24.43;52.68;94602.66;5005634;28;20030;-72
2021/09/18 00:25:47;;;;;;;11.20;3.60;;;;;;;24.44;52.87;94598.69;5007961;28;20037;-72
2021/09/18 00:28:12;;;;;;;10.52;3.90;;;;;;;24.45;52.73;94594.66;5005911;28;20045;-72
2021/09/18 00:30:39;;;;;;;11.70;3.80;;;;;;;24.44;52.20;94604.88;5006276;28;20030;-72
2021/09/18 00:33:05;;;;;;;11.85;3.67;;;;;;;24.45;52.13;94605.59;4996466;28;20030;-72
2021/09/18 00:35:30;;;;;;;11.60;3.88;;;;;;;24.42;53.56;94606.63;4987377;28;20029;-73
2021/09/18 00:37:55;;;;;;;9.75;3.42;;;;;;;24.35;53.47;94596.38;4986305;28;20026;-73
2021/09/18 00:40:21;;;;;;;10.05;3.50;;;;;;;24.32;53.43;94597.41;4986478;28;20019;-74
2021/09/18 00:42:46;;;;;;;12.80;3.60;;;;;;;24.42;53.31;94603.91;4985693;28;20041;-73
2021/09/18 00:45:12;;;;;;;9.93;3.55;;;;;;;24.41;53.45;94616.84;4987412;28;20058;-73
2021/09/18 00:47:37;;;;;;;11.32;3.70;;;;;;;24.39;53.38;94621.34;4988815;28;20417;-74
2021/09/18 00:50:04;;;;;;;14.68;3.50;;;;;;;24.29;53.61;94614.81;4987547;28;20597;-73
2021/09/18 00:52:29;;;;;;;9.48;3.35;;;;;;;24.41;53.58;94632.47;4985963;28;20037;-73
2021/09/18 00:54:54;;;;;;;9.85;3.55;;;;;;;24.39;53.56;94651.38;4986091;28;20030;-74
2021/09/18 00:57:20;;;;;;;8.55;3.72;;;;;;;24.38;54.30;94660.81;4994451;28;20037;-74
2021/09/18 00:59:46;;;;;;;7.85;3.15;;;;;;;24.41;53.99;94687.06;5006885;28;20428;-74
2021/09/18 01:02:11;;;;;;;12.68;3.75;;;;;;;24.42;54.37;94704.91;4988378;28;20065;-73
2021/09/18 01:04:37;;;;;;;12.65;3.85;;;;;;;24.33;53.99;94691.66;5006869;28;20040;-73
2021/09/18 01:07:03;;;;;;;9.75;3.80;;;;;;;24.49;53.74;94710.47;5003325;28;20760;-73
2021/09/18 01:09:28;;;;;;;8.60;3.30;;;;;;;24.51;53.55;94712.69;5007080;28;20030;-74
2021/09/18 01:11:54;;;;;;;10.48;3.70;;;;;;;24.51;53.51;94701.75;5004672;28;20041;-73
2021/09/18 01:14:19;;;;;;;10.13;3.55;;;;;;;24.58;53.40;94690.22;5004285;28;20033;-73
2021/09/18 01:16:45;;;;;;;12.10;3.55;;;;;;;24.61;53.43;94678.97;5005346;28;20030;-73
2021/09/18 01:19:10;;;;;;;11.73;3.42;;;;;;;24.63;53.27;94673.00;5004952;28;20025;-73
2021/09/18 01:21:36;;;;;;;10.50;3.90;;;;;;;24.64;54.22;94671.75;5006656;28;20022;-73
2021/09/18 01:24:01;;;;;;;12.23;3.38;;;;;;;24.59;54.67;94648.75;5006311;28;20037;-73
2021/09/18 01:26:34;;;;;;;9.95;3.35;;;;;;;24.56;54.68;94638.88;5005439;28;20030;-72
2021/09/18 01:29:00;;;;;;;11.75;3.15;;;;;;;24.53;55.08;94639.22;4988589;28;20041;-73
2021/09/18 01:31:25;;;;;;;9.30;3.50;;;;;;;24.52;55.33;94627.53;5006113;28;20033;-73
2021/09/18 01:33:51;;;;;;;12.40;3.63;;;;;;;24.50;55.19;94623.88;5004225;28;20051;-73
2021/09/18 01:36:16;;;;;;;10.40;3.13;;;;;;;24.50;55.41;94624.59;5006392;28;20156;-73
2021/09/18 01:38:42;;;;;;;13.68;3.38;;;;;;;24.47;55.58;94620.19;5005916;28;20025;-74
2021/09/18 01:41:07;;;;;;;13.50;3.47;;;;;;;24.47;55.76;94614.00;5006654;28;20084;-70
2021/09/18 01:43:33;;;;;;;12.98;3.65;;;;;;;24.44;56.09;94606.88;5004723;28;20191;-71
2021/09/18 01:45:58;;;;;;;12.68;3.28;;;;;;;24.44;56.05;94604.13;5006714;28;20519;-74
2021/09/18 01:48:24;;;;;;;13.18;4.25;;;;;;;24.40;55.94;94603.72;5003271;28;20038;-73
2021/09/18 01:50:54;;;;;;;11.63;3.60;;;;;;;24.42;56.54;94612.84;5006033;28;20112;-73
2021/09/18 01:53:21;;;;;;;11.63;3.25;;;;;;;24.40;56.42;94614.63;5005587;28;20029;-73
2021/09/18 01:55:48;;;;;;;13.02;3.40;;;;;;;24.37;57.29;94610.22;5005122;28;20084;-73
2021/09/18 01:58:13;;;;;;;12.75;3.83;;;;;;;24.36;57.30;94619.66;4989599;28;20038;-73
2021/09/18 02:00:44;;;;;;;11.65;3.95;;;;;;;24.35;57.37;94616.22;4987409;28;20468;-73
2021/09/18 02:03:09;;;;;;;11.98;3.75;;;;;;;24.34;57.07;94632.38;4985690;28;20608;-73
2021/09/18 02:05:35;;;;;;;11.25;3.65;;;;;;;24.31;57.29;94620.47;4986256;28;20030;-73
2021/09/18 02:08:00;;;;;;;9.95;3.15;;;;;;;24.34;56.98;94616.00;4990281;28;20040;-73
2021/09/18 02:10:27;;;;;;;12.32;3.25;;;;;;;24.33;57.16;94620.72;5004295;28;20034;-73
2021/09/18 02:12:52;;;;;;;10.65;3.92;;;;;;;24.24;57.54;94612.91;4998026;28;20121;-73
2021/09/18 02:15:19;;;;;;;12.38;3.42;;;;;;;24.27;57.51;94600.94;5017949;28;20165;-73
2021/09/18 02:17:45;;;;;;;15.27;4.03;;;;;;;24.24;57.80;94596.53;4985681;28;20038;-73
2021/09/18 02:20:13;;;;;;;12.40;3.40;;;;;;;24.25;57.64;94603.47;4979643;28;20473;-73
2021/09/18 02:22:41;;;;;;;11.10;3.60;;;;;;;24.25;57.17;94608.94;4985381;28;20057;-74
2021/09/18 02:25:06;;;;;;;12.05;3.50;;;;;;;24.24;57.46;94602.00;4986508;28;20084;-72
2021/09/18 02:27:32;;;;;;;14.05;3.80;;;;;;;24.21;57.39;94619.41;4988039;28;20030;-72
2021/09/18 02:29:57;;;;;;;10.05;3.95;;;;;;;24.22;57.86;94604.53;5008197;28;20042;-72
2021/09/18 02:32:23;;;;;;;8.70;3.75;;;;;;;24.19;57.87;94605.56;5007235;28;20033;-73
2021/09/18 02:34:48;;;;;;;9.15;3.90;;;;;;;24.20;58.12;94601.59;4990655;28;20034;-73
2021/09/18 02:37:14;;;;;;;13.00;3.63;;;;;;;24.19;58.25;94604.84;4990519;28;20443;-73
2021/09/18 02:39:39;;;;;;;12.13;3.58;;;;;;;24.16;58.37;94594.97;4990433;28;20026;-72
2021/09/18 02:42:05;;;;;;;9.32;3.45;;;;;;;24.14;58.40;94609.13;4988661;28;20459;-73
2021/09/18 02:44:31;;;;;;;13.68;3.88;;;;;;;24.10;58.04;94600.53;4989436;28;20165;-74
2021/09/18 02:46:56;;;;;;;10.75;3.83;;;;;;;24.11;58.46;94593.81;4989661;28;20030;-74
2021/09/18 02:49:21;;;;;;;12.98;4.07;;;;;;;24.14;58.58;94603.69;5008419;28;20034;-72
2021/09/18 02:51:47;;;;;;;9.63;3.80;;;;;;;24.16;58.08;94595.69;4985988;28;20030;-72
2021/09/18 02:54:12;;;;;;;11.32;4.03;;;;;;;24.16;58.39;94590.25;4979335;28;20042;-71
2021/09/18 02:56:38;;;;;;;10.65;4.18;;;;;;;24.18;58.58;94587.72;4978466;28;20030;-72
2021/09/18 02:59:03;;;;;;;12.48;4.10;;;;;;;24.18;58.46;94593.19;4985301;28;20038;-73
2021/09/18 03:01:29;;;;;;;9.57;3.70;;;;;;;24.19;58.62;94591.94;5005842;28;20039;-71
2021/09/18 03:03:54;;;;;;;9.35;3.92;;;;;;;24.18;58.51;94587.72;4980267;28;20114;-72
2021/09/18 03:06:20;;;;;;;13.68;4.03;;;;;;;24.16;58.58;94584.78;4979550;28;20026;-74
2021/09/18 03:08:45;;;;;;;10.38;3.92;;;;;;;24.18;59.07;94581.53;4995271;28;20026;-73
2021/09/18 03:11:11;;;;;;;16.63;4.47;;;;;;;24.17;58.70;94591.72;5002523;28;20043;-74
2021/09/18 03:13:36;;;;;;;9.95;4.70;;;;;;;24.16;59.19;94590.25;5001480;28;20112;-73
2021/09/18 03:16:03;;;;;;;11.63;3.88;;;;;;;24.17;58.70;94591.72;5005409;28;20030;-74
2021/09/18 03:18:28;;;;;;;7.35;4.05;;;;;;;24.15;58.65;94577.84;4996534;28;20027;-71
2021/09/18 03:20:54;;;;;;;15.05;4.00;;;;;;;24.15;59.02;94572.41;5006096;28;20036;-73
2021/09/18 03:23:19;;;;;;;12.07;4.18;;;;;;;24.18;58.97;94571.34;5004656;28;20675;-74
2021/09/18 03:25:45;;;;;;;15.63;4.65;;;;;;;24.19;58.74;94572.81;5004976;28;20500;-75
2021/09/18 03:28:10;;;;;;;10.40;3.75;;;;;;;24.19;58.24;94572.09;5006345;28;20025;-73
2021/09/18 03:30:35;;;;;;;8.70;4.53;;;;;;;24.22;58.52;94577.22;5008269;28;20021;-75
2021/09/18 03:33:01;;;;;;;12.30;4.07;;;;;;;24.23;58.53;94584.16;5002862;28;20034;-75
2021/09/18 03:35:26;;;;;;;8.32;3.67;;;;;;;24.30;58.26;94577.34;5003750;28;20036;-75
2021/09/18 03:37:52;;;;;;;12.15;3.88;;;;;;;24.30;57.58;94578.06;5002858;28;20563;-76
2021/09/18 03:40:17;;;;;;;10.35;3.85;;;;;;;24.38;57.91;94573.50;5005720;28;20650;-74
2021/09/18 03:42:43;;;;;;;10.45;4.05;;;;;;;24.46;57.55;94574.31;4993590;28;20485;-75
2021/09/18 03:45:09;;;;;;;7.35;4.13;;;;;;;24.51;57.21;94565.28;5004991;28;20521;-75
2021/09/18 03:47:34;;;;;;;10.25;4.40;;;;;;;24.48;57.32;94544.47;4999287;28;20038;-74
2021/09/18 03:50:00;;;;;;;14.23;4.38;;;;;;;24.55;56.85;94549.31;4996429;28;20879;-73
2021/09/18 03:52:28;;;;;;;10.23;3.67;;;;;;;24.63;57.01;94556.31;5006155;28;20099;-73
2021/09/18 03:54:53;;;;;;;12.32;3.92;;;;;;;24.67;57.01;94556.00;5004256;28;20018;-73
2021/09/18 03:57:19;;;;;;;10.02;4.38;;;;;;;24.72;56.63;94582.47;5007615;28;20030;-72
2021/09/18 03:59:45;;;;;;;11.15;4.70;;;;;;;24.74;56.79;94593.56;5003197;28;20072;-72
2021/09/18 04:02:10;;;;;;;9.00;4.05;;;;;;;24.75;56.77;94586.88;5005311;28;20038;-71
2021/09/18 04:04:36;;;;;;;12.02;4.25;;;;;;;24.81;56.28;94576.56;4997591;28;20034;-72
2021/09/18 04:07:02;;;;;;;12.45;4.53;;;;;;;24.87;56.23;94581.38;4990743;28;20089;-72
2021/09/18 04:09:27;;;;;;;9.70;4.32;;;;;;;24.94;56.28;94585.47;4987694;28;20100;-73
2021/09/18 04:11:53;;;;;;;14.68;4.50;;;;;;;24.97;56.11;94574.19;4988292;28;20030;-73
2021/09/18 04:14:18;;;;;;;8.57;4.22;;;;;;;24.98;56.29;94581.13;4986650;28;20659;-73
2021/09/18 04:16:44;;;;;;;10.63;3.95;;;;;;;25.01;55.77;94591.03;5000719;28;20035;-73
2021/09/18 04:19:09;;;;;;;12.10;4.20;;;;;;;25.08;55.78;94584.94;4987337;28;20034;-73
2021/09/18 04:21:35;;;;;;;7.32;3.72;;;;;;;24.99;55.97;94566.25;4988319;28;20041;-73
2021/09/18 04:24:00;;;;;;;7.72;4.10;;;;;;;25.14;55.31;94592.97;4988054;28;20681;-73
2021/09/18 04:26:25;;;;;;;9.23;3.75;;;;;;;25.18;55.37;94588.66;4988075;28;20537;-74
2021/09/18 04:28:51;;;;;;;10.20;3.60;;;;;;;25.24;55.25;94592.00;4988683;28;20493;-74
2021/09/18 04:31:16;;;;;;;9.85;4.18;;;;;;;25.27;55.11;94601.88;5005122;28;20512;-72
2021/09/18 04:33:42;;;;;;;7.80;3.85;;;;;;;25.32;55.40;94587.38;5007148;28;20036;-73
2021/09/18 04:36:07;;;;;;;9.70;3.88;;;;;;;25.31;55.27;94591.34;5005092;28;20430;-73
2021/09/18 04:38:33;;;;;;;11.65;3.97;;;;;;;25.35;55.29;94597.22;4989027;28;20026;-75
2021/09/18 04:40:58;;;;;;;10.18;4.50;;;;;;;25.37;55.39;94606.34;4987499;28;20030;-75
2021/09/18 04:43:24;;;;;;;10.95;4.30;;;;;;;25.33;55.55;94610.69;4989133;28;20054;-73
2021/09/18 04:45:51;;;;;;;14.60;4.60;;;;;;;25.39;55.46;94652.28;4985759;28;20045;-75
2021/09/18 04:48:16;;;;;;;11.40;3.85;;;;;;;25.47;55.07;94674.97;4989121;28;20603;-73
2021/09/18 04:50:42;;;;;;;15.52;3.97;;;;;;;25.46;55.46;94684.47;4986173;28;20019;-72
2021/09/18 04:53:07;;;;;;;9.88;4.00;;;;;;;25.48;55.24;94693.59;4985324;28;20026;-71
2021/09/18 04:55:32;;;;;;;15.52;4.50;;;;;;;25.51;55.21;94697.25;4986917;28;20054;-72
2021/09/18 04:57:58;;;;;;;10.82;4.63;;;;;;;25.55;55.15;94676.53;4986965;28;20034;-72
2021/09/18 05:00:23;;;;;;;9.43;3.40;;;;;;;25.63;54.65;94660.19;4987459;28;20053;-75
2021/09/18 05:02:49;;;;;;;9.38;3.58;;;;;;;25.71;54.07;94628.22;4999309;28;20079;-72
2021/09/18 05:05:14;;;;;;;7.85;3.47;;;;;;;25.76;54.18;94630.09;4954270;28;20058;-79
2021/09/18 05:07:40;;;;;;;16.30;4.07;;;;;;;25.85;53.52;94617.41;4994501;28;20027;-73
2021/09/18 05:10:05;;;;;;;9.40;3.83;;;;;;;25.86;53.59;94618.88;4986357;28;20088;-75
2021/09/18 05:12:31;;;;;;;8.45;3.38;;;;;;;25.83;53.87;94609.00;4986960;28;20488;-74
2021/09/18 05:14:56;;;;;;;12.00;4.30;;;;;;;25.96;53.34;94606.19;5003166;28;20018;-76
2021/09/18 05:17:22;;;;;;;9.48;3.80;;;;;;;25.97;53.35;94602.16;4986663;28;20034;-75
2021/09/18 05:19:47;;;;;;;9.27;4.00;;;;;;;25.90;53.38;94602.88;4996399;28;20129;-72
2021/09/18 05:22:13;;;;;;;11.65;3.75;;;;;;;26.02;53.19;94592.34;5003032;28;20033;-72
2021/09/18 05:24:38;;;;;;;12.52;4.32;;;;;;;25.87;53.17;94582.03;5002751;28;20073;-72
2021/09/18 05:27:05;;;;;;;8.48;3.80;;;;;;;25.98;52.96;94603.66;5016208;28;20038;-73
2021/09/18 05:29:31;;;;;;;14.15;4.38;;;;;;;25.92;53.24;94611.25;5003123;28;20021;-72
2021/09/18 05:31:56;;;;;;;14.65;4.07;;;;;;;25.95;53.29;94615.66;5000793;28;20034;-72
2021/09/18 05:34:22;;;;;;;13.10;3.95;;;;;;;25.88;53.30;94627.28;5003863;28;20030;-71
2021/09/18 05:36:47;;;;;;;13.60;4.03;;;;;;;25.87;53.36;94631.28;5005114;28;20025;-76
2021/09/18 05:39:12;;;;;;;9.18;4.22;;;;;;;25.90;53.32;94624.75;5001877;28;20044;-75
2021/09/18 05:41:38;;;;;;;10.85;4.25;;;;;;;25.83;53.69;94619.94;5004390;28;20026;-76
2021/09/18 05:44:04;;;;;;;11.07;3.88;;;;;;;25.86;53.49;94618.88;4990471;28;20077;-72
2021/09/18 05:46:29;;;;;;;11.50;4.25;;;;;;;25.95;53.40;94623.88;4990335;28;20465;-75
2021/09/18 05:48:54;;;;;;;10.60;4.18;;;;;;;25.76;54.31;94630.09;4986513;28;20061;-74
2021/09/18 05:51:20;;;;;;;11.95;4.20;;;;;;;25.78;54.27;94627.56;4985993;28;20037;-76
2021/09/18 05:53:45;;;;;;;9.90;4.55;;;;;;;25.76;54.25;94630.09;5000444;28;20305;-73
2021/09/18 05:56:11;;;;;;;10.75;4.07;;;;;;;25.70;54.45;94640.44;5002545;28;20028;-75
2021/09/18 05:58:36;;;;;;;12.23;4.65;;;;;;;25.78;54.73;94643.97;4996539;28;20029;-74
2021/09/18 06:01:02;;;;;;;8.13;4.65;;;;;;;25.78;54.60;94644.69;5000577;28;20100;-72
2021/09/18 06:03:27;;;;;;;10.65;4.13;;;;;;;25.74;54.79;94643.56;5000649;28;20108;-74
2021/09/18 06:05:52;;;;;;;13.10;4.65;;;;;;;25.72;54.74;94629.69;5006282;28;20547;-74
2021/09/18 06:08:18;;;;;;;12.00;4.20;;;;;;;25.83;55.10;94646.56;5006187;28;20038;-75
2021/09/18 06:10:43;;;;;;;12.43;4.78;;;;;;;25.85;55.17;94650.22;5005817;28;20022;-73
2021/09/18 06:13:09;;;;;;;13.43;4.18;;;;;;;25.85;55.04;94650.22;5006375;28;20031;-74
2021/09/18 06:15:34;;;;;;;11.73;4.63;;;;;;;25.83;55.23;94658.25;5004857;28;20092;-75
2021/09/18 06:18:00;;;;;;;13.15;4.78;;;;;;;25.92;54.91;94660.50;4999890;28;20520;-76
2021/09/18 06:20:25;;;;;;;10.73;4.88;;;;;;;25.98;55.05;94669.31;5002046;28;20023;-74
2021/09/18 06:22:51;;;;;;;10.27;4.35;;;;;;;25.99;54.82;94659.84;5010673;28;20053;-73
2021/09/18 06:25:16;;;;;;;13.05;4.68;;;;;;;25.95;54.49;94659.44;5007146;28;20025;-73
2021/09/18 06:27:42;;;;;;;11.85;4.53;;;;;;;25.91;54.24;94659.03;4996536;28;20029;-74
2021/09/18 06:30:08;;;;;;;11.43;4.03;;;;;;;25.91;54.41;94659.03;5008814;28;20425;-75
2021/09/18 06:32:34;;;;;;;12.43;4.05;;;;;;;25.92;54.59;94665.97;5001925;28;20024;-72
2021/09/18 06:34:59;;;;;;;8.15;3.95;;;;;;;25.99;54.84;94662.59;5004655;28;20587;-73
2021/09/18 06:37:25;;;;;;;13.48;4.68;;;;;;;26.03;54.53;94665.72;4981372;28;20505;-72
2021/09/18 06:39:50;;;;;;;9.95;4.40;;;;;;;26.06;54.46;94659.16;4995124;28;20536;-75
2021/09/18 06:42:16;;;;;;;8.68;4.38;;;;;;;26.06;54.25;94658.44;4980924;28;20026;-75
2021/09/18 06:44:41;;;;;;;11.80;4.40;;;;;;;26.07;54.55;94649.69;4990590;28;20057;-72
2021/09/18 06:47:07;;;;;;;10.30;4.25;;;;;;;26.09;53.96;94651.91;4989326;28;20100;-73
2021/09/18 06:49:32;;;;;;;11.65;4.95;;;;;;;26.08;53.60;94655.88;4989826;28;20112;-74
2021/09/18 06:51:58;;;;;;;21.63;4.93;;;;;;;26.16;53.56;94662.91;4990364;28;20555;-75
2021/09/18 06:54:23;;;;;;;861.78;582.75;;;;;;;26.33;54.04;94660.50;4990231;28;20057;-83
2021/09/18 06:56:49;;;;;;;10.98;4.53;;;;;;;26.68;52.08;94662.53;4989316;28;20030;-72
2021/09/18 06:59:14;;;;;;;16.95;4.13;;;;;;;26.89;52.05;94663.97;5000123;28;20030;-71
2021/09/18 07:01:40;;;;;;;16.38;4.68;;;;;;;26.99;51.48;94665.66;5007764;28;20021;-75
2021/09/18 07:04:05;;;;;;;14.15;4.40;;;;;;;27.06;51.38;94675.94;5008932;28;20046;-71
2021/09/18 07:06:31;;;;;;;17.73;6.00;;;;;;;27.11;50.78;94677.78;5007975;28;20030;-71
2021/09/18 07:08:56;;;;;;;13.35;5.53;;;;;;;27.16;50.80;94674.16;5011310;28;20026;-72
2021/09/18 07:11:22;;;;;;;12.07;4.85;;;;;;;27.24;51.08;94685.88;5023425;28;21318;-72
2021/09/18 07:13:47;;;;;;;19.00;5.68;;;;;;;27.24;51.34;94668.72;5006811;28;20014;-70
2021/09/18 07:16:13;;;;;;;21.98;4.82;;;;;;;27.21;51.25;94665.03;5013667;28;20547;-73
2021/09/18 07:18:38;;;;;;;21.77;5.25;;;;;;;27.30;51.14;94678.22;5001408;28;20026;-73
2021/09/18 07:21:03;;;;;;;18.83;4.90;;;;;;;27.33;51.15;94660.69;4998311;28;20429;-73
2021/09/18 07:23:29;;;;;;;14.65;5.30;;;;;;;27.34;50.59;94662.88;5000604;28;20029;-77
2021/09/18 07:25:54;;;;;;;13.80;4.72;;;;;;;27.36;51.04;94670.56;5000192;28;20036;-76
2021/09/18 07:28:20;;;;;;;11.05;5.25;;;;;;;27.36;50.79;94676.06;4998930;28;20100;-73
2021/09/18 07:30:45;;;;;;;9.80;4.43;;;;;;;27.34;51.21;94662.88;5006706;28;20668;-72
2021/09/18 07:33:11;;;;;;;10.93;4.78;;;;;;;27.37;51.02;94672.03;4999119;28;20587;-72
2021/09/18 07:35:37;;;;;;;14.73;4.82;;;;;;;27.42;50.93;94668.41;5006278;28;20041;-73
2021/09/18 07:38:04;;;;;;;14.52;4.38;;;;;;;27.38;51.01;94668.75;5003994;28;20132;-74
2021/09/18 07:40:30;;;;;;;11.10;4.47;;;;;;;27.47;50.74;94686.69;5002371;28;20079;-79
2021/09/18 07:42:55;;;;;;;8.75;4.30;;;;;;;27.47;50.88;94686.69;5004310;28;20053;-76
2021/09/18 07:45:21;;;;;;;10.38;4.43;;;;;;;27.44;50.72;94693.25;5003660;28;20042;-78
2021/09/18 07:47:46;;;;;;;10.52;4.40;;;;;;;27.55;50.59;94692.94;5001849;28;20451;-75
2021/09/18 07:50:12;;;;;;;8.00;4.65;;;;;;;27.52;50.34;94688.56;5005757;28;20042;-74
2021/09/18 07:52:37;;;;;;;15.18;4.40;;;;;;;27.52;50.11;94670.09;5000884;28;20026;-77
2021/09/18 07:55:03;;;;;;;8.48;4.15;;;;;;;27.51;49.79;94670.66;5004079;28;20432;-74
2021/09/18 07:57:29;;;;;;;10.98;4.22;;;;;;;27.50;49.52;94663.69;5005018;28;20187;-74
2021/09/18 07:59:54;;;;;;;12.13;4.63;;;;;;;27.45;49.21;94667.31;5002712;28;20447;-73
2021/09/18 08:02:20;;;;;;;10.75;4.88;;;;;;;27.42;49.60;94684.84;5005583;28;20501;-73
2021/09/18 08:04:46;;;;;;;9.73;4.90;;;;;;;27.42;50.14;94679.38;4993719;28;20034;-74
2021/09/18 08:07:11;;;;;;;10.25;5.13;;;;;;;27.33;49.66;94677.88;4988538;28;20612;-74
2021/09/18 08:09:37;;;;;;;8.65;5.05;;;;;;;27.38;50.00;94690.69;4985892;28;20030;-74
2021/09/18 08:12:03;;;;;;;11.30;4.57;;;;;;;27.39;49.82;94685.94;4988649;28;20460;-73
2021/09/18 08:14:28;;;;;;;11.93;5.57;;;;;;;27.40;50.17;94684.69;4989135;28;20420;-73
2021/09/18 08:16:55;;;;;;;8.48;5.35;;;;;;;27.37;49.70;94683.75;4987457;28;20026;-74
2021/09/18 08:19:21;;;;;;;8.93;5.07;;;;;;;27.31;49.85;94685.19;4988457;28;20049;-74
2021/09/18 08:21:46;;;;;;;11.32;5.47;;;;;;;27.38;49.97;94689.94;5001522;28;20498;-74
2021/09/18 08:24:12;;;;;;;9.45;5.20;;;;;;;27.37;49.91;94694.00;4988027;28;20045;-74
2021/09/18 08:26:37;;;;;;;13.43;5.70;;;;;;;27.32;49.74;94684.66;4987178;28;20497;-74
2021/09/18 08:29:02;;;;;;;8.95;5.30;;;;;;;27.37;49.30;94691.25;4988055;28;20037;-75
2021/09/18 08:31:28;;;;;;;12.00;5.75;;;;;;;27.31;50.42;94690.69;4998067;28;20333;-75
2021/09/18 08:33:54;;;;;;;12.57;6.18;;;;;;;27.17;50.44;94681.09;4988604;28;20030;-75
2021/09/18 08:36:19;;;;;;;8.63;6.07;;;;;;;27.27;50.07;94701.25;4987808;28;20413;-75
2021/09/18 08:38:45;;;;;;;14.43;5.93;;;;;;;27.25;50.55;94688.09;4994464;28;20097;-75
2021/09/18 08:41:10;;;;;;;9.57;6.32;;;;;;;27.31;50.49;94674.22;4987847;28;20038;-74
2021/09/18 08:43:36;;;;;;;8.57;5.57;;;;;;;27.26;50.62;94675.09;4985985;28;20521;-74
2021/09/18 08:46:01;;;;;;;8.18;5.82;;;;;;;27.33;49.95;94682.63;4999864;28;20493;-74
2021/09/18 08:48:28;;;;;;;9.30;6.30;;;;;;;27.32;50.03;94681.16;4999197;28;20032;-74
2021/09/18 08:50:53;;;;;;;10.65;6.32;;;;;;;27.26;49.26;94677.84;4990370;28;20516;-75
2021/09/18 08:53:21;;;;;;;9.18;6.25;;;;;;;27.25;49.96;94688.09;5006909;28;20072;-74
2021/09/18 08:55:56;;;;;;;9.45;6.68;;;;;;;27.25;49.56;94616.06;4997728;28;20145;-74
2021/09/18 08:58:22;;;;;;;10.45;6.60;;;;;;;27.24;49.36;94696.84;5010698;28;20026;-73
2021/09/18 09:00:49;;;;;;;10.48;7.00;;;;;;;27.27;49.74;94706.75;5004473;28;20037;-73
2021/09/18 09:03:19;;;;;;;10.65;6.82;;;;;;;27.24;49.77;94718.06;5004913;28;20026;-74
2021/09/18 09:05:44;;;;;;;10.13;7.65;;;;;;;27.28;49.78;94730.16;5001735;28;20040;-72
2021/09/18 09:08:15;;;;;;;12.43;7.82;;;;;;;27.21;49.20;94747.28;5001939;28;20427;-74
2021/09/18 09:10:44;;;;;;;11.60;7.30;;;;;;;27.21;49.36;94722.63;4992310;28;20445;-74
2021/09/18 09:13:10;;;;;;;;;;;;;;;27.19;48.84;94716.94;5001841;28;20038;-74
2021/09/18 09:15:36;;;;;;;11.82;6.65;;;;;;;27.34;49.21;94738.94;5021400;28;19910;-72
2021/09/18 09:18:24;;;;;;;10.02;6.35;;;;;;;27.38;48.69;94717.38;4990435;28;20034;-74
2021/09/18 09:20:51;;;;;;;11.20;6.30;;;;;;;27.35;48.75;94685.56;4993648;28;20026;-74
2021/09/18 09:30:09;;;;;;;8.68;5.60;;;;;;;27.71;48.40;94694.47;4834980;29;20062;-77
2021/09/18 09:32:38;;;;;;;8.98;6.20;;;;;;;27.66;49.69;94692.63;4981217;28;20046;-73
2021/09/18 09:35:08;;;;;;;11.67;6.73;;;;;;;27.60;49.86;94711.28;4985945;28;20022;-73
2021/09/18 09:37:33;;;;;;;12.38;6.03;;;;;;;27.53;49.96;94709.97;5002118;28;20599;-74
2021/09/18 09:40:01;;;;;;;11.07;6.60;;;;;;;27.47;50.28;94698.41;5002174;28;20037;-72
2021/09/18 09:42:28;;;;;;;10.95;6.75;;;;;;;27.41;50.48;94697.09;4999453;28;20053;-74
2021/09/18 09:44:54;;;;;;;9.13;6.38;;;;;;;27.31;50.36;94685.91;5001037;28;20125;-74
2021/09/18 09:47:23;;;;;;;7.10;5.15;;;;;;;27.33;49.43;94710.06;4993582;28;20428;-73
2021/09/18 09:49:57;;;;;;;10.43;5.60;;;;;;;27.26;50.17;94710.75;4995824;28;20109;-70
2021/09/18 09:52:24;;;;;;;8.65;5.38;;;;;;;27.33;50.12;94715.53;5000936;28;20084;-70
2021/09/18 09:54:51;;;;;;;19.92;6.43;;;;;;;27.30;50.25;94728.31;5011508;28;20038;-74
2021/09/18 09:57:16;;;;;;;10.77;5.45;;;;;;;27.36;50.08;94736.41;4991521;28;20041;-74
2021/09/18 09:59:42;;;;;;;9.18;5.43;;;;;;;27.26;50.43;94727.19;4993680;28;20015;-74
2021/09/18 10:02:09;;;;;;;10.45;5.45;;;;;;;27.26;49.94;94738.16;5013895;28;20030;-73
2021/09/18 10:04:35;;;;;;;9.18;5.32;;;;;;;27.25;50.16;94731.22;4999381;28;20056;-75
2021/09/18 10:07:00;;;;;;;9.23;6.13;;;;;;;27.22;50.66;94746.03;4994130;28;20042;-73
2021/09/18 10:09:26;;;;;;;8.75;5.40;;;;;;;27.24;50.71;94757.91;4992911;28;20421;-73
2021/09/18 10:11:53;;;;;;;8.25;6.05;;;;;;;27.30;50.38;94776.94;4991378;28;20022;-74
2021/09/18 10:14:26;;;;;;;10.43;6.50;;;;;;;27.24;50.20;94773.63;5007812;28;20110;-74
2021/09/18 10:16:55;;;;;;;8.63;5.00;;;;;;;27.24;49.94;94773.63;5022993;28;20034;-75
2021/09/18 10:19:32;;;;;;;8.82;5.65;;;;;;;27.25;49.82;94818.97;5006740;28;20096;-71
2021/09/18 10:24:42;;;;;;;10.38;5.47;;;;;;;27.23;50.20;94832.47;5005503;28;20060;-70
2021/09/18 10:27:34;;;;;;;9.10;5.78;;;;;;;27.13;49.91;94839.75;5025355;28;20536;-73
2021/09/18 10:29:59;;;;;;;9.70;5.63;;;;;;;27.13;49.90;94850.72;5011481;28;20066;-75
2021/09/18 10:32:25;;;;;;;8.98;5.18;;;;;;;27.24;49.90;94861.38;5016858;28;20026;-77
2021/09/18 10:35:10;;;;;;;8.45;5.38;;;;;;;27.37;48.85;94853.06;5000031;28;20033;-74
2021/09/18 10:37:37;;;;;;;7.25;4.80;;;;;;;27.36;48.60;94829.66;4998933;28;20032;-74
2021/09/18 10:40:11;;;;;;;8.95;5.03;;;;;;;27.32;48.86;94801.81;4997564;28;20032;-74
2021/09/18 10:42:38;;;;;;;7.90;5.22;;;;;;;27.40;49.70;94786.16;5011806;28;20068;-77
2021/09/18 10:45:04;;;;;;;7.28;4.78;;;;;;;27.31;49.61;94783.91;5007975;28;20084;-75
2021/09/18 10:47:49;;;;;;;7.88;4.95;;;;;;;27.20;49.29;94784.19;4998299;28;20033;-73
2021/09/18 10:50:24;;;;;;;7.68;4.65;;;;;;;27.18;49.42;94775.78;5000646;28;20030;-76
2021/09/18 10:53:19;;;;;;;8.95;4.25;;;;;;;27.13;50.25;94767.72;4996682;28;20026;-76
2021/09/18 10:55:51;;;;;;;7.45;3.72;;;;;;;27.10;49.75;94753.09;4995276;28;20039;-75
2021/09/18 10:58:16;;;;;;;5.55;3.30;;;;;;;27.10;49.91;94736.63;4982155;28;20034;-75
2021/09/18 11:00:43;;;;;;;5.57;2.97;;;;;;;26.94;49.62;94713.16;4992893;28;20022;-78
2021/09/18 11:03:09;;;;;;;5.97;2.47;;;;;;;26.91;49.43;94730.66;5006166;28;20104;-74
2021/09/18 11:05:37;;;;;;;4.65;2.55;;;;;;;26.82;49.36;94724.94;4991380;28;20536;-74
2021/09/18 11:08:19;;;;;;;6.43;3.05;;;;;;;26.73;49.66;94719.94;5002766;28;20046;-78
2021/09/18 11:10:45;;;;;;;7.35;4.03;;;;;;;26.75;49.38;94733.09;4991586;28;20049;-75
2021/09/18 11:13:11;;;;;;;6.70;3.90;;;;;;;26.68;49.55;94739.25;4999120;28;20034;-82
2021/09/18 11:15:43;;;;;;;6.35;3.70;;;;;;;26.65;49.63;94734.84;4995223;28;20038;-78
2021/09/18 11:18:34;;;;;;;7.88;3.92;;;;;;;26.58;49.52;94736.28;4991854;28;20037;-74
2021/09/18 11:21:20;;;;;;;5.97;3.42;;;;;;;26.41;49.83;94737.94;4999523;28;20458;-75
2021/09/18 11:23:50;;;;;;;6.30;3.20;;;;;;;26.28;49.72;94729.81;4997678;28;20030;-75
2021/09/18 11:26:38;;;;;;;;;;;;;;;26.27;49.26;94745.50;5005078;28;20050;-78
2021/09/18 11:29:23;;;;;;;4.97;2.80;;;;;;;26.34;48.90;94760.53;4988365;28;20514;-74
2021/09/18 11:32:16;;;;;;;5.75;2.50;;;;;;;26.37;48.56;94748.53;5000511;28;20034;-73
2021/09/18 11:34:46;;;;;;;3.97;2.50;;;;;;;26.37;49.09;94745.78;4989033;28;20491;-72
2021/09/18 11:37:27;;;;;;;;;;;;;;;26.35;49.32;94751.03;5005368;28;20664;-71